Time;durP1;ratioP1;P1;durP2;ratioP2;P2;SDS_P1;SDS_P2;PMS_P1;PMS_P2;Temp;Humidity;BMP_temperature;BMP_pressure;BME280_temperature;BME280_humidity;BME280_pressure;Samples;Min_cycle;Max_cycle;Signal;HPM_P1;HPM_P2
2023/01/08 00:01:07;;;;;;;13.70;6.97;;;;;;;2.95;100.00;95538.84;5085551;28;20410;-69
2023/01/08 00:03:34;;;;;;;12.73;9.05;;;;;;;2.87;100.00;95538.50;5087177;28;20055;-61
2023/01/08 00:06:04;;;;;;;21.27;11.68;;;;;;;2.78;100.00;95521.75;5084206;28;20040;-61
2023/01/08 00:08:30;;;;;;;35.40;19.45;;;;;;;2.74;100.00;95529.81;5087776;28;20435;-61
2023/01/08 00:10:56;;;;;;;10.25;7.72;;;;;;;2.84;100.00;95515.28;5088992;28;20565;-61
2023/01/08 00:13:22;;;;;;;128.57;64.45;;;;;;;2.83;100.00;95524.03;5085758;28;20062;-61
2023/01/08 00:15:48;;;;;;;94.45;49.67;;;;;;;2.73;100.00;95515.97;5086370;28;20179;-62
2023/01/08 00:18:13;;;;;;;54.83;29.75;;;;;;;2.70;100.00;95518.78;5088721;28;20031;-69
2023/01/08 00:20:42;;;;;;;122.75;67.45;;;;;;;2.76;100.00;95515.78;5083854;28;20036;-62
2023/01/08 00:23:17;;;;;;;48.60;29.13;;;;;;;2.92;100.00;95502.66;5089336;28;20123;-63
2023/01/08 00:25:43;;;;;;;38.72;21.90;;;;;;;2.86;100.00;95495.22;5083927;28;20040;-63
2023/01/08 00:28:08;;;;;;;19.67;13.07;;;;;;;2.92;100.00;95494.00;5078661;28;20082;-63
2023/01/08 00:30:34;;;;;;;17.70;11.00;;;;;;;2.93;100.00;95478.31;5083923;28;20466;-63
2023/01/08 00:32:59;;;;;;;16.75;10.55;;;;;;;3.10;100.00;95482.41;5085137;28;20540;-63
2023/01/08 00:35:25;;;;;;;15.90;10.07;;;;;;;3.12;100.00;95477.09;5087216;28;20041;-64
2023/01/08 00:37:51;;;;;;;13.55;9.07;;;;;;;3.11;100.00;95465.03;5088115;28;20039;-62
2023/01/08 00:40:16;;;;;;;16.45;12.07;;;;;;;3.10;100.00;95458.16;5083721;28;20464;-67
2023/01/08 00:42:42;;;;;;;19.40;12.48;;;;;;;3.10;100.00;95443.38;5089068;28;20092;-68
2023/01/08 00:45:09;;;;;;;17.73;12.50;;;;;;;3.15;100.00;95441.28;5084133;28;20114;-69
2023/01/08 00:47:34;;;;;;;15.23;11.43;;;;;;;3.09;100.00;95420.91;5084146;28;20035;-69
2023/01/08 00:50:00;;;;;;;15.23;11.00;;;;;;;3.10;100.00;95400.94;5087226;28;20024;-69
2023/01/08 00:52:25;;;;;;;20.15;15.05;;;;;;;3.17;100.00;95389.16;5088082;28;20023;-69
2023/01/08 00:54:51;;;;;;;20.05;15.13;;;;;;;3.11;100.00;95382.59;5083769;28;20035;-69
2023/01/08 00:57:16;;;;;;;26.75;16.92;;;;;;;3.06;100.00;95366.47;5079852;28;20032;-68
2023/01/08 00:59:41;;;;;;;26.00;16.13;;;;;;;3.03;100.00;95366.69;5084348;28;20028;-69
2023/01/08 01:02:07;;;;;;;18.30;13.60;;;;;;;3.03;100.00;95369.28;5088136;28;20063;-69
2023/01/08 01:04:32;;;;;;;17.70;12.02;;;;;;;3.04;100.00;95370.97;5081255;28;20121;-69
2023/01/08 01:06:57;;;;;;;14.57;11.15;;;;;;;3.29;100.00;95364.91;5081431;28;20157;-69
2023/01/08 01:09:23;;;;;;;12.20;10.38;;;;;;;3.15;100.00;95350.25;5082773;28;20032;-69
2023/01/08 01:11:48;;;;;;;12.93;10.20;;;;;;;3.05;100.00;95346.63;5081739;28;20036;-69
2023/01/08 01:14:13;;;;;;;12.65;9.23;;;;;;;2.98;100.00;95340.13;5082883;28;20108;-69
2023/01/08 01:16:40;;;;;;;13.63;9.68;;;;;;;2.99;100.00;95334.03;5085746;28;20028;-69
2023/01/08 01:19:06;;;;;;;20.52;18.38;;;;;;;2.91;100.00;95336.31;5084596;28;20040;-68
2023/01/08 01:21:32;;;;;;;12.88;9.05;;;;;;;2.90;100.00;95322.47;5077531;28;20028;-67
2023/01/08 01:24:01;;;;;;;8.38;7.45;;;;;;;2.98;100.00;95316.72;5079715;28;20081;-67
2023/01/08 01:26:27;;;;;;;8.23;6.80;;;;;;;2.94;100.00;95328.28;5082317;28;20024;-67
2023/01/08 01:28:54;;;;;;;7.70;6.72;;;;;;;2.90;100.00;95345.03;5081136;28;20046;-68
2023/01/08 01:31:21;;;;;;;7.00;6.30;;;;;;;2.97;100.00;95347.13;5086087;28;20036;-67
2023/01/08 01:33:47;;;;;;;7.50;5.60;;;;;;;3.05;100.00;95367.41;5082465;28;20102;-66
2023/01/08 01:36:13;;;;;;;5.95;5.35;;;;;;;3.11;100.00;95389.59;5084927;28;20044;-63
2023/01/08 01:38:43;;;;;;;10.40;8.70;;;;;;;3.23;100.00;95406.16;5066136;28;20036;-70
2023/01/08 01:41:20;;;;;;;8.05;6.32;;;;;;;3.36;100.00;95412.16;5082023;28;20536;-69
2023/01/08 01:43:46;;;;;;;10.93;6.38;;;;;;;3.59;100.00;95409.75;5080461;28;20397;-70
2023/01/08 01:46:37;;;;;;;5.97;5.45;;;;;;;3.57;100.00;95403.81;5086557;28;20111;-69
2023/01/08 01:49:13;;;;;;;7.00;5.80;;;;;;;3.59;100.00;95386.31;5084895;28;20090;-69
2023/01/08 01:51:44;;;;;;;6.22;5.63;;;;;;;3.58;100.00;95375.09;5088497;28;20051;-70
2023/01/08 01:54:12;;;;;;;7.35;6.60;;;;;;;3.56;100.00;95373.53;5084494;28;20032;-63
2023/01/08 01:56:37;;;;;;;6.15;5.53;;;;;;;3.55;100.00;95369.25;5086593;28;20039;-69
2023/01/08 01:59:03;;;;;;;6.47;5.82;;;;;;;3.53;100.00;95351.13;5081140;28;20024;-63
2023/01/08 02:01:30;;;;;;;6.68;6.05;;;;;;;3.56;100.00;95350.09;5088357;28;20077;-63
2023/01/08 02:03:56;;;;;;;7.88;6.32;;;;;;;3.55;100.00;95351.03;5086582;28;20131;-63
2023/01/08 02:06:36;;;;;;;6.25;5.65;;;;;;;3.55;100.00;95353.63;5084814;28;20054;-63
2023/01/08 02:09:05;;;;;;;5.88;5.28;;;;;;;3.61;100.00;95348.00;5087763;28;20032;-63
2023/01/08 02:11:46;;;;;;;6.78;5.43;;;;;;;3.78;100.00;95332.97;5078975;28;20048;-63
2023/01/08 02:14:21;;;;;;;11.77;6.47;;;;;;;3.69;100.00;95340.50;5081908;28;20044;-63
2023/01/08 02:16:51;;;;;;;5.38;4.88;;;;;;;3.77;100.00;95324.34;5084163;28;20024;-63
2023/01/08 02:19:38;;;;;;;9.43;5.28;;;;;;;3.82;100.00;95340.44;5084458;28;20032;-62
2023/01/08 02:22:31;;;;;;;4.78;4.38;;;;;;;3.84;100.00;95324.69;5085909;28;20047;-63
2023/01/08 02:25:14;;;;;;;5.32;4.32;;;;;;;3.97;100.00;95328.09;5086181;28;20485;-63
2023/01/08 02:27:44;;;;;;;6.13;4.93;;;;;;;3.93;100.00;95326.66;5085366;28;20416;-63
2023/01/08 02:30:10;;;;;;;7.05;5.22;;;;;;;3.93;100.00;95331.03;5085608;28;20021;-63
2023/01/08 02:32:38;;;;;;;7.47;5.60;;;;;;;3.95;100.00;95343.00;5080807;28;20126;-63
2023/01/08 02:35:05;;;;;;;6.22;5.63;;;;;;;3.89;100.00;95345.22;5088378;28;20059;-63
2023/01/08 02:37:31;;;;;;;6.07;5.25;;;;;;;3.86;100.00;95343.66;5084295;28;20527;-69
2023/01/08 02:40:02;;;;;;;5.85;5.15;;;;;;;3.85;100.00;95348.03;5082634;28;20173;-69
2023/01/08 02:42:45;;;;;;;7.95;5.85;;;;;;;4.02;100.00;95351.22;5085426;28;20043;-69
2023/01/08 02:45:29;;;;;;;6.35;5.22;;;;;;;4.06;100.00;95346.59;5087712;28;20044;-69
2023/01/08 02:48:08;;;;;;;7.53;5.43;;;;;;;4.04;100.00;95349.34;5089236;28;20058;-69
2023/01/08 02:50:42;;;;;;;7.35;5.88;;;;;;;4.24;98.34;95341.88;5088933;28;20031;-69
2023/01/08 02:53:10;;;;;;;8.05;6.43;;;;;;;4.21;98.62;95350.72;5087555;28;20540;-62
2023/01/08 02:55:38;;;;;;;8.10;6.15;;;;;;;4.12;98.90;95340.97;5090060;28;20032;-69
2023/01/08 02:58:04;;;;;;;6.45;5.82;;;;;;;4.07;99.55;95330.03;5091080;28;20107;-69
2023/01/08 03:00:31;;;;;;;5.68;5.28;;;;;;;4.20;98.35;95335.19;5086168;28;20055;-69
2023/01/08 03:03:06;;;;;;;6.20;5.60;;;;;;;4.07;98.54;95346.50;5081278;28;20047;-69
2023/01/08 03:05:32;;;;;;;6.25;5.75;;;;;;;4.19;98.67;95320.50;5061947;28;20123;-69
2023/01/08 03:07:57;;;;;;;8.45;7.65;;;;;;;4.03;100.00;95312.97;5085919;28;20075;-69
2023/01/08 03:10:27;;;;;;;8.13;7.35;;;;;;;3.96;100.00;95320.38;5083186;28;20124;-69
2023/01/08 03:12:57;;;;;;;7.57;6.65;;;;;;;3.83;100.00;95303.06;5085176;28;20520;-68
2023/01/08 03:15:54;;;;;;;6.47;5.88;;;;;;;3.81;100.00;95280.66;5086442;28;20036;-69
2023/01/08 03:18:27;;;;;;;7.40;6.22;;;;;;;3.91;100.00;95299.91;5075866;28;20055;-69
2023/01/08 03:20:53;;;;;;;7.13;6.43;;;;;;;3.82;100.00;95270.13;5087926;28;20566;-69
2023/01/08 03:23:21;;;;;;;8.00;6.07;;;;;;;3.78;100.00;95276.53;5089994;28;20052;-69
2023/01/08 03:25:47;;;;;;;7.63;6.35;;;;;;;3.75;100.00;95263.69;5091181;28;20558;-69
2023/01/08 03:28:22;;;;;;;6.30;5.70;;;;;;;3.74;100.00;95254.22;5089557;28;20035;-69
2023/01/08 03:30:51;;;;;;;6.97;6.13;;;;;;;3.74;100.00;95254.22;5086256;28;20106;-63
2023/01/08 03:33:18;;;;;;;6.47;5.90;;;;;;;3.75;100.00;95261.09;5086707;28;20028;-66
2023/01/08 03:35:48;;;;;;;7.35;5.50;;;;;;;3.77;100.00;95251.41;5088283;28;20043;-65
2023/01/08 03:38:19;;;;;;;6.65;6.00;;;;;;;3.77;100.00;95242.75;5077090;28;20032;-65
2023/01/08 03:40:49;;;;;;;8.15;6.07;;;;;;;3.81;100.00;95244.19;5079680;28;20047;-64
2023/01/08 03:43:14;;;;;;;7.05;6.38;;;;;;;3.78;100.00;95244.41;5081671;28;20047;-65
2023/01/08 03:45:47;;;;;;;6.05;5.55;;;;;;;3.79;100.00;95238.28;5089361;28;20035;-65
2023/01/08 03:48:13;;;;;;;6.35;5.28;;;;;;;3.93;100.00;95253.72;5088638;28;20120;-65
2023/01/08 03:50:39;;;;;;;6.43;5.80;;;;;;;3.92;100.00;95249.47;5088042;28;20110;-65
2023/01/08 03:53:04;;;;;;;6.43;5.90;;;;;;;3.92;100.00;95243.41;5090946;28;20129;-62
2023/01/08 03:55:29;;;;;;;7.22;6.18;;;;;;;3.97;100.00;95259.53;5088592;28;20039;-63
2023/01/08 03:57:55;;;;;;;7.13;5.47;;;;;;;3.94;100.00;95260.59;5086677;28;20107;-62
2023/01/08 04:00:20;;;;;;;7.18;5.38;;;;;;;3.89;100.00;95267.94;5084585;28;20081;-63
2023/01/08 04:02:45;;;;;;;8.55;6.53;;;;;;;3.86;100.00;95265.53;5083645;28;20447;-63
2023/01/08 04:05:11;;;;;;;8.05;6.40;;;;;;;3.85;100.00;95266.47;5088945;28;20048;-63
2023/01/08 04:07:36;;;;;;;9.88;7.93;;;;;;;3.89;100.00;95267.94;5080526;28;20063;-63
2023/01/08 04:10:02;;;;;;;6.72;6.10;;;;;;;3.90;100.00;95266.13;5088749;28;20118;-62
2023/01/08 04:12:28;;;;;;;5.78;5.18;;;;;;;3.96;100.00;95260.47;5082994;28;20036;-68
2023/01/08 04:14:53;;;;;;;7.45;5.95;;;;;;;4.23;100.00;95259.41;5086916;28;20028;-68
2023/01/08 04:17:18;;;;;;;6.40;4.65;;;;;;;4.18;100.00;95267.56;5088261;28;20028;-68
2023/01/08 04:19:44;;;;;;;5.45;4.97;;;;;;;4.10;100.00;95267.31;5089069;28;20028;-68
2023/01/08 04:22:10;;;;;;;5.75;5.22;;;;;;;4.08;100.00;95253.53;5089190;28;20035;-68
2023/01/08 04:24:36;;;;;;;5.57;5.07;;;;;;;4.08;100.00;95262.19;5087852;28;20031;-68
2023/01/08 04:27:02;;;;;;;10.88;5.90;;;;;;;4.11;99.98;95259.38;5089201;28;20024;-68
2023/01/08 04:29:27;;;;;;;7.15;6.55;;;;;;;4.12;100.00;95257.59;5086932;28;20044;-63
2023/01/08 04:31:52;;;;;;;7.85;7.13;;;;;;;4.12;100.00;95248.00;5080964;28;20120;-63
2023/01/08 04:34:18;;;;;;;7.43;6.60;;;;;;;4.14;100.00;95255.72;5076975;28;20096;-63
2023/01/08 04:36:43;;;;;;;6.40;5.80;;;;;;;4.14;100.00;95240.09;5090720;28;20064;-63
2023/01/08 04:39:10;;;;;;;5.45;4.95;;;;;;;4.12;100.00;95248.00;5077046;28;20037;-63
2023/01/08 04:41:35;;;;;;;6.22;5.53;;;;;;;4.12;100.00;95249.78;5071549;28;20036;-63
2023/01/08 04:44:01;;;;;;;6.60;6.00;;;;;;;4.11;100.00;95245.53;5090495;28;20577;-63
2023/01/08 04:46:26;;;;;;;6.65;6.05;;;;;;;4.12;100.00;95239.38;5090188;28;20516;-63
2023/01/08 04:48:51;;;;;;;7.05;5.47;;;;;;;4.19;100.00;95232.75;5085027;28;20027;-63
2023/01/08 04:51:17;;;;;;;6.15;5.63;;;;;;;4.29;100.00;95217.25;5083999;28;20039;-62
2023/01/08 04:53:42;;;;;;;6.07;5.45;;;;;;;4.21;100.00;95214.41;5085032;28;20032;-63
2023/01/08 04:56:09;;;;;;;7.13;5.05;;;;;;;4.12;100.00;95208.91;5083309;28;20490;-62
2023/01/08 04:58:36;;;;;;;6.80;5.35;;;;;;;4.12;100.00;95215.91;5084842;28;20086;-63
2023/01/08 05:01:18;;;;;;;5.60;5.18;;;;;;;4.14;100.00;95207.03;5090253;28;20374;-63
2023/01/08 05:03:43;;;;;;;8.38;6.75;;;;;;;4.15;100.00;95200.06;5076289;28;20115;-63
2023/01/08 05:06:09;;;;;;;6.53;5.93;;;;;;;4.14;100.00;95198.41;5090632;28;20103;-62
2023/01/08 05:08:34;;;;;;;10.02;6.40;;;;;;;4.14;100.00;95201.81;5089792;28;20166;-65
2023/01/08 05:11:01;;;;;;;6.88;6.18;;;;;;;4.18;100.00;95199.81;5090073;28;20115;-62
2023/01/08 05:13:27;;;;;;;5.78;5.18;;;;;;;4.19;100.00;95195.41;5087911;28;20036;-67
2023/01/08 05:15:53;;;;;;;6.38;5.05;;;;;;;4.17;100.00;95203.38;5089269;28;20153;-66
2023/01/08 05:18:19;;;;;;;5.97;5.13;;;;;;;4.17;100.00;95190.34;5087962;28;20135;-66
2023/01/08 05:20:44;;;;;;;5.40;5.00;;;;;;;4.24;100.00;95198.53;5089091;28;20043;-66
2023/01/08 05:23:09;;;;;;;5.25;4.85;;;;;;;4.23;100.00;95187.28;5088763;28;20490;-66
2023/01/08 05:25:35;;;;;;;6.00;5.35;;;;;;;4.31;100.00;95181.47;5089413;28;20106;-66
2023/01/08 05:28:00;;;;;;;7.63;5.35;;;;;;;4.23;100.00;95191.66;5087834;28;20036;-68
2023/01/08 05:30:25;;;;;;;5.97;4.85;;;;;;;4.20;100.00;95182.28;5089047;28;20036;-69
2023/01/08 05:32:51;;;;;;;5.22;4.82;;;;;;;4.21;100.00;95176.13;5087476;28;20040;-67
2023/01/08 05:35:17;;;;;;;5.82;5.35;;;;;;;4.21;100.00;95163.09;5089049;28;20111;-66
2023/01/08 05:37:42;;;;;;;5.72;5.20;;;;;;;4.20;100.00;95174.47;5089810;28;20126;-67
2023/01/08 05:40:08;;;;;;;7.88;5.75;;;;;;;4.23;100.00;95166.41;5088559;28;20482;-67
2023/01/08 05:42:34;;;;;;;6.05;5.45;;;;;;;4.22;100.00;95169.16;5087825;28;20474;-66
2023/01/08 05:45:01;;;;;;;6.80;6.20;;;;;;;4.16;100.00;95155.63;5084708;28;20032;-67
2023/01/08 05:47:31;;;;;;;6.80;5.80;;;;;;;4.15;100.00;95151.38;5076071;28;20076;-64
2023/01/08 05:49:56;;;;;;;6.00;5.47;;;;;;;4.11;100.00;95152.53;5070666;28;20039;-66
2023/01/08 05:52:22;;;;;;;7.50;5.93;;;;;;;4.11;100.00;95146.53;5070193;28;20033;-63
2023/01/08 05:54:47;;;;;;;7.05;5.28;;;;;;;4.10;100.00;95145.69;5072431;28;20036;-63
2023/01/08 05:57:12;;;;;;;6.00;5.35;;;;;;;4.14;100.00;95147.09;5071868;28;20112;-63
2023/01/08 05:59:38;;;;;;;5.53;4.82;;;;;;;4.17;100.00;95156.47;5089586;28;20031;-63
2023/01/08 06:02:03;;;;;;;5.68;5.18;;;;;;;4.20;100.00;95174.47;5087702;28;20039;-62
2023/01/08 06:04:28;;;;;;;6.60;6.00;;;;;;;4.19;100.00;95185.00;5088708;28;20086;-62
2023/01/08 06:06:54;;;;;;;7.05;6.35;;;;;;;4.18;100.00;95183.34;5087485;28;20513;-66
2023/01/08 06:09:19;;;;;;;7.00;6.35;;;;;;;4.23;100.00;95202.91;5088215;28;20492;-65
2023/01/08 06:11:44;;;;;;;9.75;5.70;;;;;;;4.72;98.73;95214.00;5086806;28;20131;-63
2023/01/08 06:14:10;;;;;;;9.52;7.88;;;;;;;4.76;96.88;95227.66;5089465;28;20035;-62
2023/01/08 06:16:35;;;;;;;10.10;7.45;;;;;;;4.63;97.49;95230.34;5086803;28;20561;-62
2023/01/08 06:19:00;;;;;;;10.35;6.55;;;;;;;4.51;98.24;95233.88;5088101;28;20080;-62
2023/01/08 06:21:26;;;;;;;8.77;6.72;;;;;;;4.44;99.36;95246.53;5087560;28;20123;-63
2023/01/08 06:23:51;;;;;;;7.45;6.65;;;;;;;4.37;100.00;95245.34;5091367;28;20111;-62
2023/01/08 06:26:16;;;;;;;7.63;6.57;;;;;;;4.45;100.00;95243.00;5092163;28;20054;-63
2023/01/08 06:28:41;;;;;;;8.00;5.85;;;;;;;4.43;100.00;95242.28;5092554;28;20028;-64
2023/01/08 06:31:07;;;;;;;5.22;4.78;;;;;;;4.52;99.92;95244.19;5092021;28;20050;-62
2023/01/08 06:33:32;;;;;;;5.97;4.63;;;;;;;4.52;98.44;95252.00;5092757;28;20028;-62
2023/01/08 06:36:03;;;;;;;7.07;4.65;;;;;;;4.52;98.83;95245.97;5092050;28;20653;-63
2023/01/08 06:38:33;;;;;;;6.00;5.43;;;;;;;4.51;99.18;95250.34;5092505;28;20044;-63
2023/01/08 06:41:05;;;;;;;8.25;5.28;;;;;;;4.53;99.71;95256.31;5091029;28;20453;-62
2023/01/08 06:43:32;;;;;;;5.70;5.18;;;;;;;4.48;100.00;95261.00;5092138;28;20040;-63
2023/01/08 06:45:58;;;;;;;7.15;4.75;;;;;;;4.53;100.00;95258.91;5093174;28;20032;-61
2023/01/08 06:48:24;;;;;;;6.03;5.20;;;;;;;4.53;100.00;95253.69;5076316;28;20525;-63
2023/01/08 06:50:50;;;;;;;12.68;5.15;;;;;;;4.56;99.74;95252.63;5073605;28;20028;-62
2023/01/08 06:53:15;;;;;;;4.80;4.40;;;;;;;4.59;99.26;95261.03;5085206;28;20025;-63
2023/01/08 06:55:41;;;;;;;4.80;4.40;;;;;;;4.70;99.65;95247.19;5086629;28;20044;-62
2023/01/08 06:58:06;;;;;;;7.70;6.38;;;;;;;4.64;99.68;95255.50;5092703;28;20023;-63
2023/01/08 07:00:31;;;;;;;7.60;5.70;;;;;;;4.61;99.22;95252.28;5090100;28;20038;-62
2023/01/08 07:02:57;;;;;;;6.45;5.28;;;;;;;4.66;99.85;95260.56;5083196;28;20085;-63
2023/01/08 07:05:23;;;;;;;9.43;5.30;;;;;;;4.90;98.05;95270.94;5087403;28;20044;-68
2023/01/08 07:07:49;;;;;;;5.75;5.25;;;;;;;4.83;98.58;95267.09;5091184;28;20113;-62
2023/01/08 07:10:14;;;;;;;6.45;4.75;;;;;;;4.79;99.18;95258.72;5079511;28;20057;-69
2023/01/08 07:12:39;;;;;;;8.02;5.53;;;;;;;4.95;100.00;95281.00;5072506;28;20036;-70
2023/01/08 07:15:05;;;;;;;7.70;5.97;;;;;;;4.76;100.00;95285.03;5087998;28;20024;-70
2023/01/08 07:17:32;;;;;;;6.88;6.18;;;;;;;4.69;100.00;95281.19;5077268;28;20074;-71
2023/01/08 07:19:57;;;;;;;7.97;6.72;;;;;;;4.56;100.00;95276.06;5082351;28;20048;-71
2023/01/08 07:22:24;;;;;;;35.08;31.70;;;;;;;4.51;100.00;95284.25;5077423;28;20537;-71
2023/01/08 07:24:50;;;;;;;29.38;26.10;;;;;;;4.52;100.00;95285.09;5082692;28;20642;-60
2023/01/08 07:27:15;;;;;;;24.33;21.83;;;;;;;4.48;100.00;95289.69;5077796;28;20034;-60
2023/01/08 07:29:41;;;;;;;17.90;16.17;;;;;;;4.42;100.00;95290.16;5086495;28;20056;-62
2023/01/08 07:32:06;;;;;;;11.02;9.95;;;;;;;4.39;100.00;95295.59;5084774;28;20079;-62
2023/01/08 07:34:33;;;;;;;11.90;10.75;;;;;;;4.36;100.00;95307.06;5082983;28;20478;-62
2023/01/08 07:36:59;;;;;;;12.40;11.20;;;;;;;4.36;100.00;95308.84;5077752;28;20103;-62
2023/01/08 07:39:25;;;;;;;13.27;10.65;;;;;;;4.36;100.00;95308.84;5090810;28;20111;-63
2023/01/08 07:41:50;;;;;;;17.50;12.27;;;;;;;4.33;100.00;95309.09;5083175;28;20143;-62
2023/01/08 07:44:15;;;;;;;8.57;7.80;;;;;;;4.34;100.00;95302.94;5089615;28;20493;-60
2023/01/08 07:46:41;;;;;;;9.63;8.63;;;;;;;4.40;100.00;95308.50;5090500;28;20564;-63
2023/01/08 07:49:06;;;;;;;9.30;8.50;;;;;;;4.35;100.00;95308.00;5090606;28;20459;-64
2023/01/08 07:51:31;;;;;;;11.55;10.55;;;;;;;4.45;100.00;95302.94;5090705;28;20424;-64
2023/01/08 07:53:57;;;;;;;10.15;9.15;;;;;;;4.37;100.00;95305.31;5089471;28;20070;-64
2023/01/08 07:56:23;;;;;;;8.88;8.15;;;;;;;4.29;100.00;95309.28;5089445;28;20036;-65
2023/01/08 07:58:49;;;;;;;9.70;8.77;;;;;;;4.29;100.00;95305.88;5088848;28;20482;-64
2023/01/08 08:01:14;;;;;;;9.85;8.90;;;;;;;4.28;100.00;95299.00;5080839;28;20081;-64
2023/01/08 08:03:40;;;;;;;9.43;8.40;;;;;;;4.32;100.00;95304.81;5088728;28;20044;-63
2023/01/08 08:06:06;;;;;;;10.43;8.52;;;;;;;4.30;100.00;95307.53;5089046;28;20417;-64
2023/01/08 08:08:31;;;;;;;9.73;8.32;;;;;;;4.32;100.00;95310.84;5085891;28;20039;-64
2023/01/08 08:10:57;;;;;;;11.48;10.45;;;;;;;4.33;100.00;95303.88;5088256;28;20032;-63
2023/01/08 08:13:22;;;;;;;13.50;12.35;;;;;;;4.30;100.00;95305.72;5086695;28;20123;-64
2023/01/08 08:15:47;;;;;;;13.75;12.30;;;;;;;4.32;100.00;95294.41;5085603;28;20051;-64
2023/01/08 08:18:13;;;;;;;12.45;11.25;;;;;;;4.34;100.00;95303.75;5087745;28;20036;-65
2023/01/08 08:20:38;;;;;;;10.95;9.95;;;;;;;4.44;100.00;95309.13;5070091;28;20555;-66
2023/01/08 08:23:07;;;;;;;11.45;10.35;;;;;;;4.47;100.00;95310.66;5085412;28;20650;-67
2023/01/08 08:25:32;;;;;;;13.38;12.18;;;;;;;4.44;100.00;95304.75;5085082;28;20024;-74
2023/01/08 08:27:59;;;;;;;14.15;11.95;;;;;;;4.47;100.00;95306.28;5087068;28;20039;-72
2023/01/08 08:30:26;;;;;;;14.00;12.15;;;;;;;4.48;100.00;95300.13;5089283;28;20390;-74
2023/01/08 08:32:52;;;;;;;14.23;12.88;;;;;;;4.53;100.00;95297.16;5080213;28;20050;-74
2023/01/08 08:35:18;;;;;;;14.20;12.98;;;;;;;4.57;100.00;95303.81;5084567;28;20068;-73
2023/01/08 08:37:43;;;;;;;14.95;13.38;;;;;;;4.57;100.00;95304.66;5089472;28;20036;-74
2023/01/08 08:40:09;;;;;;;16.70;14.85;;;;;;;4.61;100.00;95310.47;5087050;28;20040;-70
2023/01/08 08:42:34;;;;;;;30.80;27.77;;;;;;;4.64;100.00;95305.03;5087180;28;20031;-68
2023/01/08 08:45:00;;;;;;;19.52;17.73;;;;;;;4.85;100.00;95304.34;5086665;28;20036;-65
2023/01/08 08:47:25;;;;;;;13.25;11.75;;;;;;;4.73;100.00;95296.50;5082683;28;20032;-63
2023/01/08 08:49:50;;;;;;;12.35;11.05;;;;;;;4.60;100.00;95298.38;5084077;28;20067;-66
2023/01/08 08:52:16;;;;;;;12.68;11.40;;;;;;;4.59;100.00;95297.56;5076536;28;20478;-66
2023/01/08 08:54:41;;;;;;;13.88;12.48;;;;;;;4.63;100.00;95292.09;5083080;28;20524;-66
2023/01/08 08:57:10;;;;;;;11.15;8.77;;;;;;;4.61;100.00;95291.38;5077584;28;20551;-66
2023/01/08 08:59:35;;;;;;;15.10;10.98;;;;;;;4.54;100.00;95289.25;5085859;28;20036;-64
2023/01/08 09:02:01;;;;;;;13.93;12.02;;;;;;;4.52;100.00;95293.72;5087281;28;20565;-63
2023/01/08 09:04:31;;;;;;;12.25;10.02;;;;;;;4.55;100.00;95285.69;5060606;28;20047;-69
2023/01/08 09:06:57;;;;;;;11.13;9.80;;;;;;;4.47;100.00;95297.63;5089906;28;20088;-69
2023/01/08 09:09:22;;;;;;;12.50;11.20;;;;;;;4.52;100.00;95296.31;5090417;28;20024;-69
2023/01/08 09:11:48;;;;;;;12.32;10.85;;;;;;;4.58;100.00;95293.28;5074711;28;20387;-67
2023/01/08 09:14:13;;;;;;;13.00;11.70;;;;;;;4.66;100.00;95287.50;5071091;28;20032;-67
2023/01/08 09:16:38;;;;;;;10.60;9.35;;;;;;;4.72;100.00;95292.25;5075018;28;20124;-68
2023/01/08 09:19:05;;;;;;;11.55;10.40;;;;;;;4.72;100.00;95291.41;5077667;28;20391;-68
2023/01/08 09:21:31;;;;;;;11.23;9.63;;;;;;;4.75;100.00;95293.78;5085750;28;20202;-62
2023/01/08 09:23:56;;;;;;;10.68;9.68;;;;;;;4.70;100.00;95293.28;5090308;28;20133;-60
2023/01/08 09:26:21;;;;;;;11.32;10.10;;;;;;;4.65;100.00;95291.06;5089751;28;20185;-61
2023/01/08 09:28:47;;;;;;;11.25;10.07;;;;;;;4.64;100.00;95286.78;5090142;28;20416;-60
2023/01/08 09:31:12;;;;;;;13.77;11.73;;;;;;;4.67;100.00;95283.09;5088066;28;20070;-61
2023/01/08 09:33:38;;;;;;;12.82;11.48;;;;;;;4.68;100.00;95287.38;5071157;28;20044;-61
2023/01/08 09:36:03;;;;;;;13.90;12.50;;;;;;;4.66;100.00;95281.44;5088856;28;20031;-61
2023/01/08 09:38:29;;;;;;;15.82;12.73;;;;;;;4.65;100.00;95278.00;5089252;28;20031;-61
2023/01/08 09:41:03;;;;;;;14.23;12.85;;;;;;;4.63;100.00;95279.88;5088113;28;20479;-66
2023/01/08 09:43:32;;;;;;;12.93;11.60;;;;;;;4.77;100.00;95281.47;5088682;28;20500;-68
2023/01/08 09:46:01;;;;;;;12.82;10.88;;;;;;;4.85;100.00;95273.03;5089053;28;20456;-68
2023/01/08 09:48:39;;;;;;;13.38;11.75;;;;;;;4.85;100.00;95271.28;5089349;28;20847;-68
2023/01/08 09:51:16;;;;;;;13.80;12.40;;;;;;;4.86;100.00;95264.25;5090015;28;20032;-68
2023/01/08 09:53:43;;;;;;;13.93;12.63;;;;;;;4.75;100.00;95265.09;5082382;28;20036;-68
2023/01/08 09:56:18;;;;;;;12.10;11.00;;;;;;;4.87;100.00;95271.97;5054821;28;20032;-68
2023/01/08 09:59:04;;;;;;;12.18;11.07;;;;;;;4.69;100.00;95266.41;5083199;28;20398;-64
2023/01/08 10:01:39;;;;;;;;;;;;;;;4.61;100.00;95265.31;5090098;28;20039;-68
2023/01/08 10:04:18;;;;;;;12.38;9.68;;;;;;;4.67;100.00;95264.84;5085162;28;20657;-74
2023/01/08 10:07:24;;;;;;;12.93;10.80;;;;;;;4.65;100.00;95274.56;5084983;28;20550;-74
2023/01/08 10:09:50;;;;;;;20.35;17.60;;;;;;;4.69;100.00;95268.16;5084259;28;20537;-73
2023/01/08 10:12:33;;;;;;;30.50;25.60;;;;;;;4.83;100.00;95247.09;5074860;28;20452;-74
2023/01/08 10:15:02;;;;;;;15.43;13.43;;;;;;;4.81;100.00;95225.50;5065069;28;20047;-74
2023/01/08 10:17:39;;;;;;;12.93;11.73;;;;;;;5.01;100.00;95216.13;5084545;28;20036;-74
2023/01/08 10:20:20;;;;;;;12.05;10.45;;;;;;;5.02;100.00;95191.69;5081561;28;20028;-65
2023/01/08 10:22:46;;;;;;;11.18;10.18;;;;;;;5.22;100.00;95159.78;5077075;28;20036;-65
2023/01/08 10:25:20;;;;;;;12.82;10.85;;;;;;;5.35;100.00;95141.34;5079506;28;20041;-66
2023/01/08 10:27:51;;;;;;;12.55;11.35;;;;;;;5.55;100.00;95132.75;5083343;28;20106;-66
2023/01/08 10:30:23;;;;;;;11.93;10.73;;;;;;;5.72;100.00;95139.19;5082789;28;20032;-66
2023/01/08 10:32:56;;;;;;;12.75;11.52;;;;;;;5.88;100.00;95140.56;5083063;28;20613;-66
2023/01/08 10:35:31;;;;;;;11.18;10.18;;;;;;;5.96;100.00;95140.75;5083107;28;20060;-66
2023/01/08 10:37:56;;;;;;;9.47;7.67;;;;;;;6.06;100.00;95151.28;5086876;28;20024;-64
2023/01/08 10:40:41;;;;;;;8.75;7.95;;;;;;;6.09;100.00;95165.91;5067109;28;20347;-69
2023/01/08 10:43:15;;;;;;;10.88;8.00;;;;;;;6.05;100.00;95156.63;5085444;28;20043;-62
2023/01/08 10:45:43;;;;;;;8.38;7.57;;;;;;;6.00;100.00;95164.84;5086362;28;20139;-63
2023/01/08 10:48:16;;;;;;;11.00;9.95;;;;;;;6.05;100.00;95174.94;5078769;28;20043;-62
2023/01/08 10:50:42;;;;;;;12.18;11.07;;;;;;;6.02;100.00;95166.38;5074371;28;20060;-62
2023/01/08 10:53:27;;;;;;;9.18;8.38;;;;;;;5.94;100.00;95171.41;5078817;28;20513;-62
2023/01/08 10:56:03;;;;;;;9.35;8.45;;;;;;;5.91;100.00;95179.50;5077986;28;20039;-63
2023/01/08 10:58:39;;;;;;;25.73;20.30;;;;;;;5.81;100.00;95168.13;5081572;28;20036;-65
2023/01/08 11:01:11;;;;;;;;;;;;;;;5.65;100.00;95165.94;5082709;28;20040;-72
2023/01/08 11:03:37;;;;;;;9.05;7.95;;;;;;;5.55;100.00;95176.28;5069471;28;19954;-69
2023/01/08 11:06:16;;;;;;;8.55;7.75;;;;;;;5.47;100.00;95171.69;5079679;28;20064;-68
2023/01/08 11:08:49;;;;;;;12.23;11.00;;;;;;;5.42;100.00;95166.84;5062923;28;20039;-69
2023/01/08 11:11:15;;;;;;;9.15;8.35;;;;;;;5.71;100.00;95152.38;5092384;28;20043;-68
2023/01/08 11:13:56;;;;;;;7.95;7.18;;;;;;;5.73;100.00;95147.84;5091275;28;20095;-71
2023/01/08 11:16:29;;;;;;;8.52;7.57;;;;;;;5.71;100.00;95144.53;5086564;28;20039;-65
2023/01/08 11:18:54;;;;;;;8.32;7.63;;;;;;;5.70;100.00;95138.50;5090313;28;20561;-65
2023/01/08 11:21:22;;;;;;;9.32;7.88;;;;;;;5.62;100.00;95135.66;5088699;28;20067;-66
2023/01/08 11:24:00;;;;;;;9.35;8.45;;;;;;;5.62;100.00;95130.44;5087431;28;20559;-65
2023/01/08 11:26:26;;;;;;;10.40;9.35;;;;;;;5.58;100.00;95136.88;5084847;28;20040;-65
2023/01/08 11:29:02;;;;;;;10.52;9.23;;;;;;;5.48;100.00;95126.34;5091136;28;20036;-62
2023/01/08 11:31:42;;;;;;;11.02;9.93;;;;;;;5.47;100.00;95129.09;5085836;28;20082;-64
2023/01/08 11:34:18;;;;;;;14.85;13.55;;;;;;;5.58;100.00;95121.19;5087396;28;20040;-64